Time;durP1;ratioP1;P1;durP2;ratioP2;P2;SDS_P1;SDS_P2;PMS_P1;PMS_P2;Temp;Humidity;BMP_temperature;BMP_pressure;BME280_temperature;BME280_humidity;BME280_pressure;Samples;Min_cycle;Max_cycle;Signal;HPM_P1;HPM_P2
2021/03/28 00:00:00;;;;;;;12.10;4.20;;;;;;;;;;5093414;28;20204;-62
2021/03/28 00:02:30;;;;;;;11.25;4.68;;;;;;;;;;5093216;28;20191;-61
2021/03/28 00:05:00;;;;;;;7.90;3.63;;;;;;;;;;5093578;28;20299;-61
2021/03/28 00:07:36;;;;;;;11.68;4.05;;;;;;;;;;5093010;28;20212;-62
2021/03/28 00:10:08;;;;;;;13.98;5.38;;;;;;;;;;5092957;28;20651;-62
2021/03/28 00:12:37;;;;;;;7.43;4.22;;;;;;;;;;5093584;28;20253;-61
2021/03/28 00:15:19;;;;;;;5.82;3.25;;;;;;;;;;5093211;28;20227;-60
2021/03/28 00:17:48;;;;;;;9.48;3.78;;;;;;;;;;5093105;28;20690;-62
2021/03/28 00:20:28;;;;;;;12.75;4.32;;;;;;;;;;5093462;28;20196;-60
2021/03/28 00:23:12;;;;;;;10.80;4.60;;;;;;;;;;5094116;28;20187;-61
2021/03/28 00:25:42;;;;;;;15.85;5.63;;;;;;;;;;5097131;28;20231;-62
2021/03/28 00:28:11;;;;;;;14.40;4.10;;;;;;;;;;5097523;28;20323;-61
2021/03/28 00:30:40;;;;;;;9.07;4.00;;;;;;;;;;5098274;28;20664;-61
2021/03/28 00:33:17;;;;;;;12.63;4.40;;;;;;;;;;5097427;28;20204;-62
2021/03/28 00:35:50;;;;;;;8.57;4.38;;;;;;;;;;5097035;28;20719;-62
2021/03/28 00:38:19;;;;;;;13.48;4.70;;;;;;;;;;5097267;28;20651;-61
2021/03/28 00:41:02;;;;;;;12.80;4.05;;;;;;;;;;5097424;28;20201;-62
2021/03/28 00:43:30;;;;;;;9.48;4.00;;;;;;;;;;5097384;28;20192;-61
2021/03/28 00:45:58;;;;;;;7.38;3.85;;;;;;;;;;5097310;28;20220;-62
2021/03/28 00:48:26;;;;;;;6.70;4.05;;;;;;;;;;5096687;28;20266;-61
2021/03/28 00:50:57;;;;;;;6.03;4.15;;;;;;;;;;5096718;28;20200;-62
2021/03/28 00:53:32;;;;;;;15.50;5.25;;;;;;;;;;5096696;28;20211;-62
2021/03/28 00:56:01;;;;;;;8.18;4.50;;;;;;;;;;5096893;28;20227;-61
2021/03/28 00:58:30;;;;;;;13.75;5.60;;;;;;;;;;5097032;28;20197;-61
2021/03/28 01:01:06;;;;;;;10.38;5.32;;;;;;;;;;5096950;28;20201;-62
2021/03/28 01:03:55;;;;;;;12.45;5.35;;;;;;;;;;5096731;28;20603;-62
2021/03/28 01:06:25;;;;;;;11.02;4.60;;;;;;;;;;5096786;28;20261;-61
2021/03/28 01:08:55;;;;;;;10.93;5.00;;;;;;;;;;5096600;28;20704;-61
2021/03/28 01:11:31;;;;;;;11.95;5.18;;;;;;;;;;5097043;28;20185;-62
2021/03/28 01:14:28;;;;;;;10.63;5.93;;;;;;;;;;5096627;28;20220;-62
2021/03/28 01:17:21;;;;;;;9.82;5.10;;;;;;;;;;5097430;28;20185;-62
2021/03/28 01:20:06;;;;;;;11.10;6.28;;;;;;;;;;5097303;28;20181;-62
2021/03/28 01:22:39;;;;;;;8.73;5.60;;;;;;;;;;5096827;28;20227;-61
2021/03/28 01:25:18;;;;;;;9.88;6.30;;;;;;;;;;5096996;28;20224;-62
2021/03/28 01:27:51;;;;;;;8.75;4.70;;;;;;;;;;5096708;28;20185;-62
2021/03/28 01:30:19;;;;;;;10.90;5.40;;;;;;;;;;5097368;28;20267;-62
2021/03/28 01:32:47;;;;;;;9.23;5.70;;;;;;;;;;5101989;28;20196;-61
2021/03/28 01:35:21;;;;;;;12.70;6.35;;;;;;;;;;5095703;28;20221;-62
2021/03/28 01:37:51;;;;;;;16.55;6.35;;;;;;;;;;5096376;28;20573;-61
2021/03/28 01:40:21;;;;;;;11.30;5.32;;;;;;;;;;5096359;28;20257;-62
2021/03/28 01:42:59;;;;;;;14.90;5.70;;;;;;;;;;5096012;28;20207;-62
2021/03/28 01:45:31;;;;;;;11.32;4.85;;;;;;;;;;5095985;28;20261;-62
2021/03/28 01:48:05;;;;;;;10.20;5.00;;;;;;;;;;5095664;28;20204;-62
2021/03/28 01:50:46;;;;;;;17.30;5.38;;;;;;;;;;5096129;28;20185;-62
2021/03/28 01:53:19;;;;;;;13.13;5.43;;;;;;;;;;5096120;28;20184;-63
2021/03/28 01:55:49;;;;;;;12.55;6.20;;;;;;;;;;5095934;28;20233;-62
2021/03/28 01:58:24;;;;;;;14.48;5.70;;;;;;;;;;5095684;28;20181;-61
2021/03/28 02:01:09;;;;;;;12.68;5.82;;;;;;;;;;5096006;28;20184;-62
2021/03/28 02:03:40;;;;;;;12.23;5.38;;;;;;;;;;5095574;28;20184;-62
2021/03/28 02:06:18;;;;;;;8.70;5.78;;;;;;;;;;5095571;28;20213;-62
2021/03/28 02:08:52;;;;;;;9.80;4.85;;;;;;;;;;5095722;28;20257;-62
2021/03/28 02:11:28;;;;;;;13.32;7.43;;;;;;;;;;5095792;28;20188;-61
2021/03/28 02:14:06;;;;;;;8.20;5.20;;;;;;;;;;5095647;28;20227;-62
2021/03/28 02:16:35;;;;;;;10.30;5.60;;;;;;;;;;5095754;28;20192;-61
2021/03/28 02:19:09;;;;;;;12.38;4.65;;;;;;;;;;5095333;28;20201;-62
2021/03/28 02:21:54;;;;;;;9.45;4.40;;;;;;;;;;5095724;28;20238;-62
2021/03/28 02:24:24;;;;;;;10.00;5.03;;;;;;;;;;5095412;28;20223;-61
2021/03/28 02:27:03;;;;;;;12.63;5.65;;;;;;;;;;5095463;28;20196;-62
2021/03/28 02:29:40;;;;;;;8.77;4.78;;;;;;;;;;5095240;28;20216;-62
2021/03/28 02:32:25;;;;;;;7.90;4.15;;;;;;;;;;5095237;28;20577;-62
2021/03/28 02:34:59;;;;;;;12.27;4.57;;;;;;;;;;5094820;28;20575;-62
2021/03/28 02:37:37;;;;;;;10.77;4.20;;;;;;;;;;5095394;28;20229;-63
2021/03/28 02:40:07;;;;;;;7.78;4.00;;;;;;;;;;5094870;28;20186;-62
2021/03/28 02:42:36;;;;;;;9.90;3.95;;;;;;;;;;5095144;28;20184;-62
2021/03/28 02:45:19;;;;;;;7.68;4.07;;;;;;;;;;5095048;28;20216;-62
2021/03/28 02:48:09;;;;;;;10.77;4.55;;;;;;;;;;5093906;28;20334;-61
2021/03/28 02:50:45;;;;;;;8.70;4.38;;;;;;;;;;5095150;28;20558;-62
2021/03/28 02:53:20;;;;;;;10.73;4.10;;;;;;;;;;5094975;28;20208;-61
2021/03/28 02:56:05;;;;;;;8.48;4.97;;;;;;;;;;5094848;28;20624;-62
2021/03/28 02:58:39;;;;;;;10.13;5.10;;;;;;;;;;5094894;28;20181;-63
2021/03/28 03:01:15;;;;;;;10.82;4.90;;;;;;;;;;5094964;28;20191;-62
2021/03/28 03:03:51;;;;;;;7.70;3.88;;;;;;;;;;5094794;28;20186;-60
2021/03/28 03:06:38;;;;;;;11.40;4.63;;;;;;;;;;5094560;28;20239;-61
2021/03/28 03:09:09;;;;;;;7.47;4.60;;;;;;;;;;5094420;28;20212;-61
2021/03/28 03:11:54;;;;;;;8.68;6.70;;;;;;;;;;5094686;28;20185;-62
2021/03/28 03:14:41;;;;;;;9.95;3.92;;;;;;;;;;5094886;28;20231;-62
2021/03/28 03:17:24;;;;;;;13.23;4.32;;;;;;;;;;5094181;28;20184;-62
2021/03/28 03:20:10;;;;;;;8.93;4.00;;;;;;;;;;5094145;28;20227;-62
2021/03/28 03:22:55;;;;;;;10.13;3.92;;;;;;;;;;5094637;28;20198;-62
2021/03/28 03:25:32;;;;;;;9.30;4.35;;;;;;;;;;5101533;28;20217;-62
2021/03/28 03:28:25;;;;;;;11.25;5.03;;;;;;;;;;5096883;28;20238;-61
2021/03/28 03:31:02;;;;;;;7.50;3.95;;;;;;;;;;5094323;28;20187;-62
2021/03/28 03:33:40;;;;;;;9.38;3.75;;;;;;;;;;5094006;28;20192;-63
2021/03/28 03:36:21;;;;;;;9.65;4.85;;;;;;;;;;5095540;28;20192;-62
2021/03/28 03:38:57;;;;;;;10.32;4.28;;;;;;;;;;5095457;28;20197;-62
2021/03/28 03:41:42;;;;;;;7.47;4.70;;;;;;;;;;5098287;28;20188;-62
2021/03/28 03:44:16;;;;;;;13.63;4.30;;;;;;;;;;5087611;28;20227;-62
2021/03/28 03:46:47;;;;;;;6.03;4.35;;;;;;;;;;5095798;28;20200;-62
2021/03/28 03:49:27;;;;;;;7.15;4.10;;;;;;;;;;5096467;28;20208;-61
2021/03/28 03:52:00;;;;;;;7.63;4.03;;;;;;;;;;5096771;28;20640;-61
2021/03/28 03:54:36;;;;;;;10.93;4.30;;;;;;;;;;5094778;28;20222;-61
2021/03/28 03:57:08;;;;;;;10.70;4.38;;;;;;;;;;5096023;28;20185;-62
2021/03/28 03:59:39;;;;;;;7.55;3.78;;;;;;;;;;5094856;28;20552;-62
2021/03/28 04:02:09;;;;;;;10.93;3.95;;;;;;;;;;5096469;28;20185;-62
2021/03/28 04:08:04;;;;;;;12.18;4.40;;;;;;;;;;5114635;27;20539;-81
2021/03/28 04:10:34;;;;;;;7.65;4.15;;;;;;;;;;5135713;28;20190;-80
2021/03/28 04:13:31;;;;;;;7.22;3.88;;;;;;;;;;5137083;28;20167;-81
2021/03/28 04:16:08;;;;;;;8.82;4.45;;;;;;;;;;5129530;28;20201;-82
2021/03/28 04:18:42;;;;;;;8.85;4.30;;;;;;;;;;5131640;28;20178;-82
2021/03/28 04:21:15;;;;;;;10.57;4.30;;;;;;;;;;5133527;28;20218;-83
2021/03/28 04:23:53;;;;;;;8.07;4.45;;;;;;;;;;5133120;28;20265;-82
2021/03/28 04:26:23;;;;;;;12.00;4.60;;;;;;;;;;5133170;28;20244;-82
2021/03/28 04:28:54;;;;;;;6.75;3.28;;;;;;;;;;5134876;28;20217;-83
2021/03/28 04:31:39;;;;;;;7.63;3.58;;;;;;;;;;5134703;28;20222;-83
2021/03/28 04:34:11;;;;;;;7.88;4.03;;;;;;;;;;5117251;28;20216;-82
2021/03/28 04:36:40;;;;;;;7.50;3.42;;;;;;;;;;5116453;28;20213;-82
2021/03/28 04:39:34;;;;;;;5.13;3.30;;;;;;;;;;5134022;28;20211;-79
2021/03/28 04:42:18;;;;;;;9.50;4.10;;;;;;;;;;5083384;28;20222;-83
2021/03/28 04:45:05;;;;;;;5.90;3.10;;;;;;;;;;5127017;28;20198;-82
2021/03/28 04:47:47;;;;;;;16.33;3.78;;;;;;;;;;5126658;28;20299;-82
2021/03/28 04:50:33;;;;;;;7.45;3.08;;;;;;;;;;5115203;28;20225;-83
2021/03/28 04:53:10;;;;;;;8.48;3.20;;;;;;;;;;5114388;28;20221;-82
2021/03/28 04:55:58;;;;;;;9.85;3.53;;;;;;;;;;5114255;28;20547;-81
2021/03/28 04:58:36;;;;;;;6.60;3.15;;;;;;;;;;5110440;28;20206;-81
2021/03/28 05:01:12;;;;;;;9.60;3.70;;;;;;;;;;5114998;28;20224;-82
2021/03/28 05:03:54;;;;;;;8.98;2.95;;;;;;;;;;5115230;28;20192;-82
2021/03/28 05:06:30;;;;;;;11.25;4.00;;;;;;;;;;5119305;28;20221;-83
2021/03/28 05:09:12;;;;;;;5.90;3.45;;;;;;;;;;5114256;28;20202;-82
2021/03/28 05:11:56;;;;;;;6.50;2.72;;;;;;;;;;5113045;28;20245;-81
2021/03/28 05:14:37;;;;;;;7.00;2.80;;;;;;;;;;5112519;28;20233;-82
2021/03/28 05:17:24;;;;;;;5.60;3.15;;;;;;;;;;5111624;28;20190;-81
2021/03/28 05:19:59;;;;;;;8.73;2.70;;;;;;;;;;5108609;28;20199;-82
2021/03/28 05:22:35;;;;;;;8.38;3.92;;;;;;;;;;5113140;28;20628;-82
2021/03/28 05:25:16;;;;;;;8.68;3.05;;;;;;;;;;5118197;28;20188;-83
2021/03/28 05:28:04;;;;;;;7.53;3.35;;;;;;;;;;5104796;28;20204;-83
2021/03/28 05:30:42;;;;;;;12.98;3.83;;;;;;;;;;5101812;28;20182;-83
2021/03/28 05:33:20;;;;;;;7.38;3.35;;;;;;;;;;5100507;28;20210;-81
2021/03/28 05:35:57;;;;;;;8.85;3.70;;;;;;;;;;5101035;28;20211;-83
2021/03/28 05:38:43;;;;;;;6.90;3.60;;;;;;;;;;5098776;28;20204;-81
2021/03/28 05:41:34;;;;;;;7.60;3.45;;;;;;;;;;5101403;28;20221;-82
2021/03/28 05:44:19;;;;;;;5.82;3.05;;;;;;;;;;5100188;28;20184;-82
2021/03/28 05:47:01;;;;;;;7.93;3.00;;;;;;;;;;5099090;28;20336;-82
2021/03/28 05:49:43;;;;;;;8.35;3.38;;;;;;;;;;5096884;28;20627;-81
2021/03/28 05:52:28;;;;;;;5.95;2.97;;;;;;;;;;5080477;28;20220;-81
2021/03/28 05:55:05;;;;;;;6.20;3.42;;;;;;;;;;5114259;28;20659;-83
2021/03/28 05:57:59;;;;;;;3.05;2.50;;;;;;;;;;5102804;28;20191;-82
2021/03/28 06:00:39;;;;;;;8.40;3.42;;;;;;;;;;5063288;28;20227;-81
2021/03/28 06:03:24;;;;;;;5.78;2.95;;;;;;;;;;5098810;28;20587;-82
2021/03/28 06:06:29;;;;;;;7.95;2.97;;;;;;;;;;5096935;28;20221;-81
2021/03/28 06:09:11;;;;;;;8.43;4.05;;;;;;;;;;5096941;28;20261;-81
2021/03/28 06:12:02;;;;;;;9.73;3.55;;;;;;;;;;5111368;28;20652;-82
2021/03/28 06:14:42;;;;;;;8.48;4.03;;;;;;;;;;5098969;28;20190;-82
2021/03/28 06:17:17;;;;;;;8.25;3.50;;;;;;;;;;5109687;28;20213;-83
2021/03/28 06:20:14;;;;;;;8.07;3.05;;;;;;;;;;5109939;28;20203;-82
2021/03/28 06:23:03;;;;;;;6.05;2.97;;;;;;;;;;5048533;28;20222;-82
2021/03/28 06:26:00;;;;;;;10.07;3.45;;;;;;;;;;5107672;28;20195;-82
2021/03/28 06:28:44;;;;;;;6.63;3.47;;;;;;;;;;5108833;28;20204;-82
2021/03/28 06:31:38;;;;;;;8.48;4.30;;;;;;;;;;5100910;28;20219;-83
2021/03/28 06:34:19;;;;;;;6.72;3.95;;;;;;;;;;5101792;28;20203;-81
2021/03/28 06:37:10;;;;;;;7.72;4.70;;;;;;;;;;5101337;28;20233;-82
2021/03/28 06:39:52;;;;;;;9.77;3.03;;;;;;;;;;5100366;28;20200;-81
2021/03/28 06:42:34;;;;;;;8.80;3.45;;;;;;;;;;5085121;28;20264;-82
2021/03/28 06:45:17;;;;;;;8.82;3.17;;;;;;;;;;5098577;28;20188;-81
2021/03/28 06:48:08;;;;;;;9.77;3.60;;;;;;;;;;5098176;28;20217;-83
2021/03/28 06:50:44;;;;;;;13.45;3.58;;;;;;;;;;5084795;28;20207;-81
2021/03/28 06:53:22;;;;;;;7.90;3.75;;;;;;;;;;5099746;28;20192;-80
2021/03/28 06:56:04;;;;;;;8.48;4.60;;;;;;;;;;5096440;28;20631;-81
2021/03/28 06:58:46;;;;;;;7.38;3.42;;;;;;;;;;5097345;28;20177;-81
2021/03/28 07:01:28;;;;;;;8.45;3.45;;;;;;;;;;5094435;28;20238;-81
2021/03/28 07:04:08;;;;;;;5.15;2.90;;;;;;;;;;5096877;28;20230;-82
2021/03/28 07:06:39;;;;;;;9.20;3.78;;;;;;;;;;5103175;28;20235;-83
2021/03/28 07:09:32;;;;;;;5.95;3.35;;;;;;;;;;5110756;28;20196;-81
2021/03/28 07:12:02;;;;;;;3.90;3.03;;;;;;;;;;5065237;28;20702;-82
2021/03/28 07:14:45;;;;;;;8.10;4.47;;;;;;;;;;5099993;28;20196;-81
2021/03/28 07:17:29;;;;;;;5.53;2.97;;;;;;;;;;5100145;28;20180;-81
2021/03/28 07:20:17;;;;;;;8.02;3.13;;;;;;;;;;5119337;28;20203;-82
2021/03/28 07:22:59;;;;;;;7.78;3.38;;;;;;;;;;5119299;28;20196;-81
2021/03/28 07:25:44;;;;;;;8.60;3.70;;;;;;;;;;5086246;28;20198;-81
2021/03/28 07:28:26;;;;;;;6.47;3.20;;;;;;;;;;5118745;28;20196;-81
2021/03/28 07:31:07;;;;;;;5.85;3.50;;;;;;;;;;5105878;28;20243;-80
2021/03/28 07:34:04;;;;;;;9.38;3.20;;;;;;;;;;5118474;28;20177;-81
2021/03/28 07:36:42;;;;;;;5.68;3.63;;;;;;;;;;5116736;28;20211;-81
2021/03/28 07:39:27;;;;;;;7.03;3.80;;;;;;;;;;5116294;28;20196;-82
2021/03/28 07:42:09;;;;;;;6.38;3.50;;;;;;;;;;5109654;28;20573;-84
2021/03/28 07:44:58;;;;;;;7.00;3.10;;;;;;;;;;5100306;28;20724;-83
2021/03/28 07:47:38;;;;;;;5.57;2.75;;;;;;;;;;5102632;28;20213;-83
2021/03/28 07:50:29;;;;;;;9.43;3.30;;;;;;;;;;5101139;28;20187;-83
2021/03/28 07:53:06;;;;;;;8.32;2.70;;;;;;;;;;5099565;28;20180;-83
2021/03/28 07:55:33;;;;;;;8.70;5.35;;;;;;;;;;5098342;28;20195;-82
2021/03/28 07:58:27;;;;;;;10.50;3.80;;;;;;;;;;5098835;28;20254;-83
2021/03/28 08:01:21;;;;;;;6.65;3.25;;;;;;;;;;5098975;28;20222;-83
2021/03/28 08:03:57;;;;;;;4.03;3.53;;;;;;;;;;5100649;28;20204;-82
2021/03/28 08:06:30;;;;;;;7.28;3.13;;;;;;;;;;5111837;28;20223;-83
2021/03/28 08:09:07;;;;;;;7.93;3.22;;;;;;;;;;5112064;28;20275;-81
2021/03/28 08:11:48;;;;;;;6.80;2.90;;;;;;;;;;5115705;28;20263;-82
2021/03/28 08:14:40;;;;;;;7.53;3.63;;;;;;;;;;5117347;28;20185;-82
2021/03/28 08:17:26;;;;;;;11.10;3.90;;;;;;;;;;5114173;28;20180;-83
2021/03/28 08:20:08;;;;;;;4.60;3.20;;;;;;;;;;5116405;28;20208;-84
2021/03/28 08:22:46;;;;;;;6.95;3.53;;;;;;;;;;5106711;28;20252;-82
2021/03/28 08:25:28;;;;;;;5.55;3.50;;;;;;;;;;5098783;28;20180;-82
2021/03/28 08:28:13;;;;;;;6.32;2.80;;;;;;;;;;5099771;28;20205;-82
2021/03/28 08:30:55;;;;;;;6.68;2.72;;;;;;;;;;5106249;28;20196;-83
2021/03/28 08:33:42;;;;;;;5.63;2.90;;;;;;;;;;5104131;28;20229;-85
2021/03/28 08:36:24;;;;;;;5.60;2.37;;;;;;;;;;5098311;28;20180;-82
2021/03/28 08:39:04;;;;;;;5.20;2.80;;;;;;;;;;5100518;28;20450;-82
2021/03/28 08:41:40;;;;;;;6.63;3.23;;;;;;;;;;5099566;28;20454;-82
2021/03/28 08:44:25;;;;;;;6.97;3.00;;;;;;;;;;5108149;28;20434;-82
2021/03/28 08:47:10;;;;;;;7.00;3.73;;;;;;;;;;5103122;28;20483;-84
2021/03/28 08:49:41;;;;;;;5.83;3.27;;;;;;;;;;5096730;28;20450;-83
2021/03/28 08:52:26;;;;;;;7.07;2.60;;;;;;;;;;5096790;28;20460;-82
2021/03/28 08:55:00;;;;;;;6.67;2.67;;;;;;;;;;5101012;28;20435;-82
2021/03/28 08:57:34;;;;;;;8.43;3.00;;;;;;;;;;5100612;28;20472;-83
2021/03/28 09:00:19;;;;;;;6.10;2.80;;;;;;;;;;5101524;28;20463;-82
2021/03/28 09:02:55;;;;;;;12.43;3.23;;;;;;;;;;5100627;28;20538;-83
2021/03/28 09:05:26;;;;;;;5.57;2.37;;;;;;;;;;5100730;28;20482;-83
2021/03/28 09:08:00;;;;;;;7.53;2.83;;;;;;;;;;5101686;28;20458;-83
2021/03/28 09:10:40;;;;;;;9.60;3.10;;;;;;;;;;5104590;28;20446;-83
2021/03/28 09:13:13;;;;;;;8.00;2.87;;;;;;;;;;5102539;28;20456;-82
2021/03/28 09:15:53;;;;;;;5.00;2.57;;;;;;;;;;5106028;28;20544;-83
2021/03/28 09:18:27;;;;;;;5.90;2.37;;;;;;;;;;5107661;28;20449;-82
2021/03/28 09:20:55;;;;;;;6.13;3.30;;;;;;;;;;5100283;28;20500;-83
2021/03/28 09:23:32;;;;;;;8.10;2.20;;;;;;;;;;5098439;28;20488;-83
2021/03/28 09:26:01;;;;;;;5.97;2.70;;;;;;;;;;5101187;28;20925;-82
2021/03/28 09:28:37;;;;;;;8.23;2.70;;;;;;;;;;5102395;28;20438;-83
2021/03/28 09:31:06;;;;;;;8.43;3.50;;;;;;;;;;5107726;28;20808;-82
2021/03/28 09:33:38;;;;;;;4.63;2.20;;;;;;;;;;5114614;28;20441;-82
2021/03/28 09:36:14;;;;;;;8.10;4.27;;;;;;;;;;5114249;28;20428;-83
2021/03/28 09:38:53;;;;;;;6.53;2.43;;;;;;;;;;5114541;28;20436;-81
2021/03/28 09:41:28;;;;;;;5.20;2.20;;;;;;;;;;5118415;28;20445;-83
2021/03/28 09:43:59;;;;;;;6.23;2.40;;;;;;;;;;5119201;28;20433;-83
2021/03/28 09:46:37;;;;;;;6.07;2.57;;;;;;;;;;5118829;28;20464;-82
2021/03/28 09:49:25;;;;;;;4.97;2.50;;;;;;;;;;5118984;28;20417;-83
2021/03/28 09:52:10;;;;;;;8.60;2.83;;;;;;;;;;5118946;28;20465;-82
2021/03/28 09:54:43;;;;;;;11.20;3.10;;;;;;;;;;5119041;28;20464;-82
2021/03/28 09:57:17;;;;;;;7.90;2.83;;;;;;;;;;5105694;28;20461;-83
2021/03/28 09:59:54;;;;;;;7.73;2.73;;;;;;;;;;5105969;28;20437;-83
2021/03/28 10:02:30;;;;;;;5.97;2.87;;;;;;;;;;5116516;28;20506;-81
2021/03/28 10:05:08;;;;;;;5.70;2.80;;;;;;;;;;5118493;28;20452;-80
2021/03/28 10:07:40;;;;;;;7.80;2.77;;;;;;;;;;5117037;28;20458;-82
2021/03/28 10:10:11;;;;;;;5.47;2.40;;;;;;;;;;5115697;28;20442;-81
2021/03/28 10:12:46;;;;;;;7.07;3.13;;;;;;;;;;5117351;28;20458;-83
2021/03/28 10:15:16;;;;;;;6.43;2.47;;;;;;;;;;5117033;28;20430;-84
2021/03/28 10:17:46;;;;;;;4.63;2.07;;;;;;;;;;5114575;28;20437;-83
2021/03/28 10:20:31;;;;;;;5.17;2.30;;;;;;;;;;5101874;28;20550;-82
2021/03/28 10:23:05;;;;;;;4.27;2.10;;;;;;;;;;5106650;28;20434;-83
2021/03/28 10:25:41;;;;;;;5.40;2.80;;;;;;;;;;5110747;28;20493;-84
2021/03/28 10:28:26;;;;;;;7.07;2.73;;;;;;;;;;5106004;28;20474;-83
2021/03/28 10:31:02;;;;;;;8.47;2.47;;;;;;;;;;5111998;28;20466;-83
2021/03/28 10:33:36;;;;;;;5.53;2.50;;;;;;;;;;5104214;28;20421;-83
2021/03/28 10:36:09;;;;;;;5.53;2.67;;;;;;;;;;5102227;28;20489;-83
2021/03/28 10:38:44;;;;;;;6.77;2.73;;;;;;;;;;5100567;28;20458;-83
2021/03/28 10:41:19;;;;;;;5.33;2.47;;;;;;;;;;5108836;28;20840;-82
2021/03/28 10:43:55;;;;;;;4.80;2.50;;;;;;;;;;5104917;28;20434;-82
2021/03/28 10:46:41;;;;;;;6.60;2.50;;;;;;;;;;5101564;28;20519;-82
2021/03/28 10:49:26;;;;;;;5.03;2.20;;;;;;;;;;5102366;28;20446;-84
2021/03/28 10:52:07;;;;;;;3.50;2.33;;;;;;;;;;5100356;28;20831;-83
2021/03/28 10:55:04;;;;;;;6.70;2.50;;;;;;;;;;5067003;28;20456;-84
2021/03/28 10:57:49;;;;;;;4.23;2.10;;;;;;;;;;5037309;28;20448;-82
2021/03/28 11:00:46;;;;;;;9.30;2.70;;;;;;;;;;5091664;28;20446;-84
2021/03/28 11:03:30;;;;;;;8.20;2.60;;;;;;;;;;5097666;28;20438;-82
2021/03/28 11:06:15;;;;;;;3.30;2.30;;;;;;;;;;5112552;28;20446;-82
2021/03/28 11:08:50;;;;;;;7.50;2.83;;;;;;;;;;5113686;28;20487;-83
2021/03/28 11:11:31;;;;;;;5.70;2.30;;;;;;;;;;5100743;28;20461;-85
2021/03/28 11:14:14;;;;;;;3.87;2.20;;;;;;;;;;5101477;28;20441;-83
2021/03/28 11:16:52;;;;;;;6.70;2.40;;;;;;;;;;5098963;28;20431;-83
2021/03/28 11:19:37;;;;;;;6.37;2.20;;;;;;;;;;5101383;28;20407;-84
2021/03/28 11:22:07;;;;;;;3.57;1.57;;;;;;;;;;5099878;28;20458;-84
2021/03/28 11:24:37;;;;;;;4.83;1.70;;;;;;;;;;5099589;28;20433;-82
2021/03/28 11:27:19;;;;;;;6.23;1.97;;;;;;;;;;5098744;28;21019;-82
2021/03/28 11:30:04;;;;;;;6.10;2.20;;;;;;;;;;5085446;28;20783;-84
2021/03/28 11:32:46;;;;;;;6.97;2.20;;;;;;;;;;5110780;28;20458;-80
2021/03/28 11:35:18;;;;;;;5.50;2.10;;;;;;;;;;5102182;28;20438;-84
2021/03/28 11:37:48;;;;;;;6.17;2.20;;;;;;;;;;5100432;28;20434;-83
2021/03/28 11:40:29;;;;;;;2.60;1.80;;;;;;;;;;5098732;28;20841;-85
2021/03/28 11:43:11;;;;;;;5.83;2.10;;;;;;;;;;5098002;28;20445;-83
2021/03/28 11:45:38;;;;;;;4.40;1.83;;;;;;;;;;5098901;28;20445;-84
2021/03/28 11:48:21;;;;;;;3.50;2.33;;;;;;;;;;5097268;28;20535;-84
2021/03/28 11:50:48;;;;;;;4.60;2.13;;;;;;;;;;5097852;28;20481;-84
2021/03/28 11:53:21;;;;;;;5.47;1.80;;;;;;;;;;5114363;28;20442;-79
2021/03/28 11:55:52;;;;;;;4.57;2.23;;;;;;;;;;5116087;28;20445;-79
2021/03/28 11:58:31;;;;;;;5.17;1.90;;;;;;;;;;5116534;28;20448;-79
2021/03/28 12:00:58;;;;;;;6.17;2.10;;;;;;;;;;5116427;28;20465;-80
2021/03/28 12:03:28;;;;;;;5.77;1.93;;;;;;;;;;5115590;28;20446;-81
2021/03/28 12:05:57;;;;;;;3.20;1.70;;;;;;;;;;5115038;28;20450;-80
2021/03/28 12:08:26;;;;;;;6.53;2.00;;;;;;;;;;5115308;28;20492;-80
2021/03/28 12:10:52;;;;;;;1.70;1.43;;;;;;;;;;5102953;28;20474;-84
2021/03/28 12:13:35;;;;;;;5.73;1.97;;;;;;;;;;5104253;28;20449;-83
2021/03/28 12:16:06;;;;;;;4.53;2.00;;;;;;;;;;5104247;28;20434;-83
2021/03/28 12:18:37;;;;;;;3.73;1.60;;;;;;;;;;5111398;28;20498;-80
2021/03/28 12:21:22;;;;;;;3.43;2.10;;;;;;;;;;5115954;28;20480;-79
2021/03/28 12:23:57;;;;;;;3.23;1.67;;;;;;;;;;5116417;28;20453;-80
2021/03/28 12:26:26;;;;;;;3.17;1.90;;;;;;;;;;5115124;28;20433;-81
2021/03/28 12:28:55;;;;;;;5.70;2.00;;;;;;;;;;5118657;28;20438;-79
2021/03/28 12:31:32;;;;;;;3.30;1.60;;;;;;;;;;5119528;28;20430;-83
2021/03/28 12:34:21;;;;;;;3.97;1.93;;;;;;;;;;5110082;28;20465;-84
2021/03/28 12:36:50;;;;;;;3.60;2.27;;;;;;;;;;5106365;28;20438;-84
2021/03/28 12:39:18;;;;;;;3.83;2.23;;;;;;;;;;5111892;28;20438;-80
2021/03/28 12:42:00;;;;;;;4.33;2.13;;;;;;;;;;5119513;28;20469;-82
2021/03/28 12:44:35;;;;;;;4.97;2.63;;;;;;;;;;5118959;28;20425;-79
2021/03/28 12:47:05;;;;;;;4.60;2.03;;;;;;;;;;5114983;28;20450;-85
2021/03/28 12:49:34;;;;;;;6.07;2.30;;;;;;;;;;5109361;28;20446;-81
2021/03/28 12:52:03;;;;;;;5.70;2.30;;;;;;;;;;5108601;28;20470;-84
2021/03/28 12:54:31;;;;;;;6.20;2.60;;;;;;;;;;5102344;28;20821;-82
2021/03/28 12:57:01;;;;;;;3.93;2.00;;;;;;;;;;5102898;28;20465;-84
2021/03/28 12:59:29;;;;;;;5.23;2.30;;;;;;;;;;5099175;28;20454;-84
2021/03/28 13:02:10;;;;;;;4.97;2.10;;;;;;;;;;5098715;28;21000;-82
2021/03/28 13:04:39;;;;;;;4.90;2.10;;;;;;;;;;5098484;28;20422;-82
2021/03/28 13:07:06;;;;;;;5.00;2.37;;;;;;;;;;5097603;28;21008;-82
2021/03/28 13:09:36;;;;;;;3.33;1.60;;;;;;;;;;5099222;28;20438;-83
2021/03/28 13:12:23;;;;;;;5.53;2.73;;;;;;;;;;5100339;28;20585;-83
2021/03/28 13:14:50;;;;;;;3.20;1.70;;;;;;;;;;5107217;28;20453;-83
2021/03/28 13:17:33;;;;;;;6.80;2.60;;;;;;;;;;5107500;28;20457;-82
2021/03/28 13:20:14;;;;;;;4.17;2.27;;;;;;;;;;5105940;28;20422;-82
2021/03/28 13:22:41;;;;;;;5.77;2.70;;;;;;;;;;5107082;28;20461;-83
2021/03/28 13:25:19;;;;;;;6.60;2.60;;;;;;;;;;5108961;28;20450;-85
2021/03/28 13:27:46;;;;;;;4.33;2.40;;;;;;;;;;5101317;28;20466;-84
2021/03/28 13:30:21;;;;;;;8.30;3.07;;;;;;;;;;5101035;28;20797;-83
2021/03/28 13:32:49;;;;;;;5.03;2.13;;;;;;;;;;5100209;28;20441;-83
2021/03/28 13:35:28;;;;;;;4.00;2.20;;;;;;;;;;5100297;28;20525;-82
2021/03/28 13:37:56;;;;;;;6.50;2.33;;;;;;;;;;5099913;28;20446;-82
2021/03/28 13:40:26;;;;;;;6.50;2.70;;;;;;;;;;5100502;28;20469;-82
2021/03/28 13:42:55;;;;;;;2.80;2.40;;;;;;;;;;5104386;28;20427;-83
2021/03/28 13:45:24;;;;;;;3.87;2.43;;;;;;;;;;5117311;28;20446;-84
2021/03/28 13:47:53;;;;;;;6.13;2.60;;;;;;;;;;5118002;28;20462;-83
2021/03/28 13:50:30;;;;;;;6.10;2.67;;;;;;;;;;5118229;28;20411;-79
2021/03/28 13:52:58;;;;;;;5.97;2.63;;;;;;;;;;5117908;28;20430;-83
2021/03/28 13:55:30;;;;;;;5.60;2.90;;;;;;;;;;5117959;28;20510;-79
2021/03/28 13:58:08;;;;;;;6.10;2.80;;;;;;;;;;5117235;28;20438;-83
2021/03/28 14:00:36;;;;;;;5.40;2.60;;;;;;;;;;5112869;28;20509;-84
2021/03/28 14:03:15;;;;;;;5.73;2.70;;;;;;;;;;5099370;28;20815;-84
2021/03/28 14:05:43;;;;;;;3.27;2.10;;;;;;;;;;5100259;28;20434;-83
2021/03/28 14:08:14;;;;;;;6.57;2.30;;;;;;;;;;5099079;28;20461;-84
2021/03/28 14:10:52;;;;;;;5.87;2.60;;;;;;;;;;5100002;28;20435;-84
2021/03/28 14:13:21;;;;;;;4.37;2.57;;;;;;;;;;5099379;28;20430;-84
2021/03/28 14:15:49;;;;;;;4.10;2.07;;;;;;;;;;5099954;28;20450;-84
2021/03/28 14:18:29;;;;;;;5.63;2.50;;;;;;;;;;5099783;28;20806;-84
2021/03/28 14:21:10;;;;;;;6.27;2.23;;;;;;;;;;5099774;28;20474;-83
2021/03/28 14:23:44;;;;;;;3.10;2.23;;;;;;;;;;5100613;28;20438;-83
2021/03/28 14:26:24;;;;;;;4.77;2.57;;;;;;;;;;5098453;28;20922;-83
2021/03/28 14:28:52;;;;;;;4.60;2.47;;;;;;;;;;5098848;28;20902;-82
2021/03/28 14:31:21;;;;;;;5.70;2.57;;;;;;;;;;5098853;28;20996;-83
2021/03/28 14:33:58;;;;;;;3.30;2.20;;;;;;;;;;5099009;28;20834;-83
2021/03/28 14:36:33;;;;;;;6.87;2.23;;;;;;;;;;5097962;28;20430;-82
2021/03/28 14:39:21;;;;;;;4.10;2.70;;;;;;;;;;5097921;28;20491;-82
2021/03/28 14:41:49;;;;;;;5.33;2.60;;;;;;;;;;5101610;28;20875;-82
2021/03/28 14:44:31;;;;;;;6.67;2.30;;;;;;;;;;5100538;28;20841;-84
2021/03/28 14:47:02;;;;;;;9.00;2.30;;;;;;;;;;5084833;28;20834;-83
2021/03/28 14:49:35;;;;;;;3.97;2.67;;;;;;;;;;5098006;28;20474;-83
2021/03/28 14:52:09;;;;;;;4.87;2.73;;;;;;;;;;5097485;28;20984;-82
2021/03/28 14:54:40;;;;;;;5.70;2.50;;;;;;;;;;5098641;28;20792;-83
2021/03/28 14:57:10;;;;;;;7.07;2.73;;;;;;;;;;5099894;28;20445;-83
2021/03/28 14:59:41;;;;;;;4.13;2.47;;;;;;;;;;5107662;28;20449;-80
2021/03/28 15:02:15;;;;;;;5.80;2.70;;;;;;;;;;5104177;28;20481;-82
2021/03/28 15:04:57;;;;;;;6.83;3.03;;;;;;;;;;5101159;28;20446;-83
2021/03/28 15:07:39;;;;;;;4.27;2.97;;;;;;;;;;5099780;28;20485;-84
2021/03/28 15:10:11;;;;;;;5.27;2.20;;;;;;;;;;5100432;28;20454;-82
2021/03/28 15:12:41;;;;;;;7.37;3.07;;;;;;;;;;5102569;28;20488;-83
2021/03/28 15:15:21;;;;;;;6.93;3.13;;;;;;;;;;5103225;28;20452;-82
2021/03/28 15:17:52;;;;;;;6.20;3.30;;;;;;;;;;5102918;28;20429;-82
2021/03/28 15:20:27;;;;;;;5.10;3.10;;;;;;;;;;5104626;28;20479;-83
2021/03/28 15:22:56;;;;;;;5.50;3.63;;;;;;;;;;5103827;28;20436;-83
2021/03/28 15:25:25;;;;;;;4.90;3.53;;;;;;;;;;5102874;28;20445;-84
2021/03/28 15:27:53;;;;;;;8.80;3.70;;;;;;;;;;5104492;28;20847;-84
2021/03/28 15:30:24;;;;;;;6.00;3.80;;;;;;;;;;5105566;28;20483;-84
2021/03/28 15:33:11;;;;;;;7.40;3.60;;;;;;;;;;5102296;28;20426;-82
2021/03/28 15:35:41;;;;;;;6.40;4.10;;;;;;;;;;5101344;28;20448;-82
2021/03/28 15:38:41;;;;;;;6.83;3.97;;;;;;;;;;5101740;28;20478;-81
2021/03/28 15:41:15;;;;;;;4.60;3.60;;;;;;;;;;5113210;28;20476;-80
2021/03/28 15:43:50;;;;;;;8.17;4.40;;;;;;;;;;5114226;28;20808;-81